sensor_id;sensor_type;location;lat;lon;timestamp;temperature;humidity
76102;SHT30;64830;46.910;6.354;2023-04-25T00:00:14;8.50;66.95
76102;SHT30;64830;46.910;6.354;2023-04-25T00:02:40;8.52;66.40
76102;SHT30;64830;46.910;6.354;2023-04-25T00:05:06;8.44;65.72
76102;SHT30;64830;46.910;6.354;2023-04-25T00:07:32;8.45;66.13
76102;SHT30;64830;46.910;6.354;2023-04-25T00:09:58;8.42;65.55
76102;SHT30;64830;46.910;6.354;2023-04-25T00:12:23;8.38;65.25
76102;SHT30;64830;46.910;6.354;2023-04-25T00:14:49;8.35;65.41
76102;SHT30;64830;46.910;6.354;2023-04-25T00:17:15;8.37;65.68
76102;SHT30;64830;46.910;6.354;2023-04-25T00:19:44;8.37;65.84
76102;SHT30;64830;46.910;6.354;2023-04-25T00:22:11;8.37;65.75
76102;SHT30;64830;46.910;6.354;2023-04-25T00:24:37;8.41;66.16
76102;SHT30;64830;46.910;6.354;2023-04-25T00:27:02;8.38;66.46
76102;SHT30;64830;46.910;6.354;2023-04-25T00:29:28;8.35;66.09
76102;SHT30;64830;46.910;6.354;2023-04-25T00:31:53;8.27;66.84
76102;SHT30;64830;46.910;6.354;2023-04-25T00:34:19;8.28;66.88
76102;SHT30;64830;46.910;6.354;2023-04-25T00:36:44;8.22;67.00
76102;SHT30;64830;46.910;6.354;2023-04-25T00:39:10;8.21;66.85
76102;SHT30;64830;46.910;6.354;2023-04-25T00:41:36;8.20;66.97
76102;SHT30;64830;46.910;6.354;2023-04-25T00:44:03;8.11;67.26
76102;SHT30;64830;46.910;6.354;2023-04-25T00:46:30;8.08;67.68
76102;SHT30;64830;46.910;6.354;2023-04-25T00:48:56;8.05;67.79
76102;SHT30;64830;46.910;6.354;2023-04-25T00:51:21;8.05;68.58
76102;SHT30;64830;46.910;6.354;2023-04-25T00:53:49;7.98;68.71
76102;SHT30;64830;46.910;6.354;2023-04-25T00:56:15;7.93;69.55
76102;SHT30;64830;46.910;6.354;2023-04-25T00:58:41;7.93;69.44
76102;SHT30;64830;46.910;6.354;2023-04-25T01:01:08;7.93;69.61
76102;SHT30;64830;46.910;6.354;2023-04-25T01:03:34;7.93;69.71
76102;SHT30;64830;46.910;6.354;2023-04-25T01:06:09;7.96;69.93
76102;SHT30;64830;46.910;6.354;2023-04-25T01:08:35;7.93;70.15
76102;SHT30;64830;46.910;6.354;2023-04-25T01:11:01;7.97;70.09
76102;SHT30;64830;46.910;6.354;2023-04-25T01:13:26;7.93;69.92
76102;SHT30;64830;46.910;6.354;2023-04-25T01:15:52;7.93;70.27
76102;SHT30;64830;46.910;6.354;2023-04-25T01:18:18;7.91;70.41
76102;SHT30;64830;46.910;6.354;2023-04-25T01:20:46;7.90;70.33
76102;SHT30;64830;46.910;6.354;2023-04-25T01:23:12;7.89;70.59
76102;SHT30;64830;46.910;6.354;2023-04-25T01:25:38;7.90;70.56
76102;SHT30;64830;46.910;6.354;2023-04-25T01:28:05;7.89;70.76
76102;SHT30;64830;46.910;6.354;2023-04-25T01:30:30;7.85;70.58
76102;SHT30;64830;46.910;6.354;2023-04-25T01:32:56;7.85;70.62
76102;SHT30;64830;46.910;6.354;2023-04-25T01:35:22;7.83;70.69
76102;SHT30;64830;46.910;6.354;2023-04-25T01:37:49;7.77;70.53
76102;SHT30;64830;46.910;6.354;2023-04-25T01:40:15;7.72;70.47
76102;SHT30;64830;46.910;6.354;2023-04-25T01:42:43;7.69;70.77
76102;SHT30;64830;46.910;6.354;2023-04-25T01:45:10;7.58;70.95
76102;SHT30;64830;46.910;6.354;2023-04-25T01:47:36;7.56;70.95
76102;SHT30;64830;46.910;6.354;2023-04-25T01:50:03;7.49;71.03
76102;SHT30;64830;46.910;6.354;2023-04-25T01:52:29;7.48;70.76
76102;SHT30;64830;46.910;6.354;2023-04-25T01:54:57;7.49;70.84
76102;SHT30;64830;46.910;6.354;2023-04-25T01:57:22;7.48;70.89
76102;SHT30;64830;46.910;6.354;2023-04-25T01:59:48;7.49;71.14
76102;SHT30;64830;46.910;6.354;2023-04-25T02:02:14;7.52;70.99
76102;SHT30;64830;46.910;6.354;2023-04-25T02:04:39;7.51;71.01
76102;SHT30;64830;46.910;6.354;2023-04-25T02:07:05;7.48;71.18
76102;SHT30;64830;46.910;6.354;2023-04-25T02:09:30;7.48;71.20
76102;SHT30;64830;46.910;6.354;2023-04-25T02:11:55;7.48;71.58
76102;SHT30;64830;46.910;6.354;2023-04-25T02:14:21;7.48;71.69
76102;SHT30;64830;46.910;6.354;2023-04-25T02:16:47;7.51;71.76
76102;SHT30;64830;46.910;6.354;2023-04-25T02:19:12;7.48;72.16
76102;SHT30;64830;46.910;6.354;2023-04-25T02:21:37;7.48;72.19
76102;SHT30;64830;46.910;6.354;2023-04-25T02:24:04;7.49;72.23
76102;SHT30;64830;46.910;6.354;2023-04-25T02:26:29;7.47;72.21
76102;SHT30;64830;46.910;6.354;2023-04-25T02:28:56;7.51;72.25
76102;SHT30;64830;46.910;6.354;2023-04-25T02:31:22;7.52;71.94
76102;SHT30;64830;46.910;6.354;2023-04-25T02:33:48;7.52;71.94
76102;SHT30;64830;46.910;6.354;2023-04-25T02:36:13;7.41;72.71
76102;SHT30;64830;46.910;6.354;2023-04-25T02:38:39;7.31;72.74
76102;SHT30;64830;46.910;6.354;2023-04-25T02:41:05;7.28;72.88
76102;SHT30;64830;46.910;6.354;2023-04-25T02:43:30;7.30;73.25
76102;SHT30;64830;46.910;6.354;2023-04-25T02:45:55;7.27;73.77
76102;SHT30;64830;46.910;6.354;2023-04-25T02:48:21;7.24;73.75
76102;SHT30;64830;46.910;6.354;2023-04-25T02:50:46;7.11;74.89
76102;SHT30;64830;46.910;6.354;2023-04-25T02:53:12;6.85;74.58
76102;SHT30;64830;46.910;6.354;2023-04-25T02:55:37;6.67;74.57
76102;SHT30;64830;46.910;6.354;2023-04-25T02:58:02;6.56;74.17
76102;SHT30;64830;46.910;6.354;2023-04-25T03:00:28;6.49;73.98
76102;SHT30;64830;46.910;6.354;2023-04-25T03:02:53;6.44;74.09
76102;SHT30;64830;46.910;6.354;2023-04-25T03:05:19;6.33;74.38
76102;SHT30;64830;46.910;6.354;2023-04-25T03:07:44;6.37;74.60
76102;SHT30;64830;46.910;6.354;2023-04-25T03:10:11;6.33;74.74
76102;SHT30;64830;46.910;6.354;2023-04-25T03:12:36;6.34;75.67
76102;SHT30;64830;46.910;6.354;2023-04-25T03:15:03;6.34;75.30
76102;SHT30;64830;46.910;6.354;2023-04-25T03:17:29;6.33;76.17
76102;SHT30;64830;46.910;6.354;2023-04-25T03:19:54;6.30;75.77
76102;SHT30;64830;46.910;6.354;2023-04-25T03:22:20;6.33;75.71
76102;SHT30;64830;46.910;6.354;2023-04-25T03:24:46;6.34;75.50
76102;SHT30;64830;46.910;6.354;2023-04-25T03:27:12;6.41;75.70
76102;SHT30;64830;46.910;6.354;2023-04-25T03:29:37;6.40;75.76
76102;SHT30;64830;46.910;6.354;2023-04-25T03:32:03;6.38;75.80
76102;SHT30;64830;46.910;6.354;2023-04-25T03:34:28;6.41;76.27
76102;SHT30;64830;46.910;6.354;2023-04-25T03:36:55;6.38;75.70
76102;SHT30;64830;46.910;6.354;2023-04-25T03:39:20;6.41;76.15
76102;SHT30;64830;46.910;6.354;2023-04-25T03:41:45;6.46;76.16
76102;SHT30;64830;46.910;6.354;2023-04-25T03:44:11;6.44;76.07
76102;SHT30;64830;46.910;6.354;2023-04-25T03:46:36;6.49;76.60
76102;SHT30;64830;46.910;6.354;2023-04-25T03:49:02;6.48;76.02
76102;SHT30;64830;46.910;6.354;2023-04-25T03:51:27;6.49;76.00
76102;SHT30;64830;46.910;6.354;2023-04-25T03:53:52;6.49;76.25
76102;SHT30;64830;46.910;6.354;2023-04-25T03:56:18;6.53;76.80
76102;SHT30;64830;46.910;6.354;2023-04-25T03:58:44;6.55;77.58
76102;SHT30;64830;46.910;6.354;2023-04-25T04:01:09;6.55;77.06
76102;SHT30;64830;46.910;6.354;2023-04-25T04:03:35;6.58;77.48
76102;SHT30;64830;46.910;6.354;2023-04-25T04:06:04;6.61;78.40
76102;SHT30;64830;46.910;6.354;2023-04-25T04:08:31;6.61;79.73
76102;SHT30;64830;46.910;6.354;2023-04-25T04:10:59;6.62;80.63
76102;SHT30;64830;46.910;6.354;2023-04-25T04:13:26;6.61;80.31
76102;SHT30;64830;46.910;6.354;2023-04-25T04:15:52;6.62;82.96
76102;SHT30;64830;46.910;6.354;2023-04-25T04:18:17;6.56;82.63
76102;SHT30;64830;46.910;6.354;2023-04-25T04:20:42;6.51;82.52
76102;SHT30;64830;46.910;6.354;2023-04-25T04:23:08;6.49;82.40
76102;SHT30;64830;46.910;6.354;2023-04-25T04:25:33;6.46;82.38
76102;SHT30;64830;46.910;6.354;2023-04-25T04:27:59;6.51;83.53
76102;SHT30;64830;46.910;6.354;2023-04-25T04:30:26;6.52;83.54
76102;SHT30;64830;46.910;6.354;2023-04-25T04:32:55;6.49;83.25
76102;SHT30;64830;46.910;6.354;2023-04-25T04:35:21;6.53;81.80
76102;SHT30;64830;46.910;6.354;2023-04-25T04:37:46;6.53;82.76
76102;SHT30;64830;46.910;6.354;2023-04-25T04:40:14;6.53;81.90
76102;SHT30;64830;46.910;6.354;2023-04-25T04:42:41;6.52;82.93
76102;SHT30;64830;46.910;6.354;2023-04-25T04:45:07;6.52;83.11
76102;SHT30;64830;46.910;6.354;2023-04-25T04:47:32;6.52;82.02
76102;SHT30;64830;46.910;6.354;2023-04-25T04:49:59;6.48;82.06
76102;SHT30;64830;46.910;6.354;2023-04-25T04:52:24;6.48;83.22
76102;SHT30;64830;46.910;6.354;2023-04-25T04:54:50;6.45;83.40
76102;SHT30;64830;46.910;6.354;2023-04-25T04:57:15;6.44;83.21
76102;SHT30;64830;46.910;6.354;2023-04-25T04:59:41;6.38;82.62
76102;SHT30;64830;46.910;6.354;2023-04-25T05:02:07;6.31;82.73
76102;SHT30;64830;46.910;6.354;2023-04-25T05:04:32;6.24;82.37
76102;SHT30;64830;46.910;6.354;2023-04-25T05:06:58;6.23;82.29
76102;SHT30;64830;46.910;6.354;2023-04-25T05:09:23;6.20;82.34
76102;SHT30;64830;46.910;6.354;2023-04-25T05:11:51;6.21;82.02
76102;SHT30;64830;46.910;6.354;2023-04-25T05:14:17;6.23;82.14
76102;SHT30;64830;46.910;6.354;2023-04-25T05:16:42;6.28;81.94
76102;SHT30;64830;46.910;6.354;2023-04-25T05:19:08;6.31;82.37
76102;SHT30;64830;46.910;6.354;2023-04-25T05:21:33;6.37;82.08
76102;SHT30;64830;46.910;6.354;2023-04-25T05:23:59;6.45;82.31
76102;SHT30;64830;46.910;6.354;2023-04-25T05:26:25;6.51;82.92
76102;SHT30;64830;46.910;6.354;2023-04-25T05:28:51;6.58;82.33
76102;SHT30;64830;46.910;6.354;2023-04-25T05:31:16;6.61;82.55
76102;SHT30;64830;46.910;6.354;2023-04-25T05:33:41;6.65;82.30
76102;SHT30;64830;46.910;6.354;2023-04-25T05:36:07;6.67;82.33
76102;SHT30;64830;46.910;6.354;2023-04-25T05:38:33;6.68;82.22
76102;SHT30;64830;46.910;6.354;2023-04-25T05:40:58;6.68;82.41
76102;SHT30;64830;46.910;6.354;2023-04-25T05:43:24;6.68;82.31
76102;SHT30;64830;46.910;6.354;2023-04-25T05:45:49;6.62;82.10
76102;SHT30;64830;46.910;6.354;2023-04-25T05:48:15;6.55;82.48
76102;SHT30;64830;46.910;6.354;2023-04-25T05:50:40;6.51;82.58
76102;SHT30;64830;46.910;6.354;2023-04-25T05:53:06;6.52;82.96
76102;SHT30;64830;46.910;6.354;2023-04-25T05:55:31;6.42;83.20
76102;SHT30;64830;46.910;6.354;2023-04-25T05:57:57;6.37;82.85
76102;SHT30;64830;46.910;6.354;2023-04-25T06:00:22;6.35;82.58
76102;SHT30;64830;46.910;6.354;2023-04-25T06:02:48;6.37;82.68
76102;SHT30;64830;46.910;6.354;2023-04-25T06:05:13;6.38;83.14
76102;SHT30;64830;46.910;6.354;2023-04-25T06:07:38;6.40;83.26
76102;SHT30;64830;46.910;6.354;2023-04-25T06:10:04;6.37;83.11
76102;SHT30;64830;46.910;6.354;2023-04-25T06:12:32;6.37;83.51
76102;SHT30;64830;46.910;6.354;2023-04-25T06:14:58;6.34;83.78
76102;SHT30;64830;46.910;6.354;2023-04-25T06:17:23;6.35;83.86
76102;SHT30;64830;46.910;6.354;2023-04-25T06:19:49;6.34;83.90
76102;SHT30;64830;46.910;6.354;2023-04-25T06:22:14;6.40;83.55
76102;SHT30;64830;46.910;6.354;2023-04-25T06:24:40;6.38;83.35
76102;SHT30;64830;46.910;6.354;2023-04-25T06:27:05;6.38;83.20
76102;SHT30;64830;46.910;6.354;2023-04-25T06:29:31;6.46;83.33
76102;SHT30;64830;46.910;6.354;2023-04-25T06:31:56;6.45;82.85
76102;SHT30;64830;46.910;6.354;2023-04-25T06:34:22;6.49;82.18
76102;SHT30;64830;46.910;6.354;2023-04-25T06:36:47;6.49;82.56
76102;SHT30;64830;46.910;6.354;2023-04-25T06:39:13;6.56;82.44
76102;SHT30;64830;46.910;6.354;2023-04-25T06:41:38;6.62;82.28
76102;SHT30;64830;46.910;6.354;2023-04-25T06:44:04;6.64;81.85
76102;SHT30;64830;46.910;6.354;2023-04-25T06:46:29;6.69;82.23
76102;SHT30;64830;46.910;6.354;2023-04-25T06:48:54;6.69;81.79
76102;SHT30;64830;46.910;6.354;2023-04-25T06:51:20;6.78;81.69
76102;SHT30;64830;46.910;6.354;2023-04-25T06:53:45;6.82;81.34
76102;SHT30;64830;46.910;6.354;2023-04-25T06:56:11;6.85;80.84
76102;SHT30;64830;46.910;6.354;2023-04-25T06:58:36;6.89;80.74
76102;SHT30;64830;46.910;6.354;2023-04-25T07:01:02;7.01;80.87
76102;SHT30;64830;46.910;6.354;2023-04-25T07:03:27;7.07;80.67
76102;SHT30;64830;46.910;6.354;2023-04-25T07:05:53;7.13;79.68
76102;SHT30;64830;46.910;6.354;2023-04-25T07:08:18;7.11;79.29
76102;SHT30;64830;46.910;6.354;2023-04-25T07:10:44;7.17;78.65
76102;SHT30;64830;46.910;6.354;2023-04-25T07:13:11;7.14;77.53
76102;SHT30;64830;46.910;6.354;2023-04-25T07:15:36;7.14;77.26
76102;SHT30;64830;46.910;6.354;2023-04-25T07:18:02;7.14;77.50
76102;SHT30;64830;46.910;6.354;2023-04-25T07:20:27;7.08;77.31
76102;SHT30;64830;46.910;6.354;2023-04-25T07:22:52;7.07;77.93
76102;SHT30;64830;46.910;6.354;2023-04-25T07:25:18;7.01;78.40
76102;SHT30;64830;46.910;6.354;2023-04-25T07:27:44;7.00;78.57
76102;SHT30;64830;46.910;6.354;2023-04-25T07:30:09;6.83;76.71
76102;SHT30;64830;46.910;6.354;2023-04-25T07:32:35;6.62;77.11
76102;SHT30;64830;46.910;6.354;2023-04-25T07:35:01;6.34;78.21
76102;SHT30;64830;46.910;6.354;2023-04-25T07:37:27;6.16;78.43
76102;SHT30;64830;46.910;6.354;2023-04-25T07:39:52;6.00;79.33
76102;SHT30;64830;46.910;6.354;2023-04-25T07:42:17;5.90;78.91
76102;SHT30;64830;46.910;6.354;2023-04-25T07:44:43;5.75;79.02
76102;SHT30;64830;46.910;6.354;2023-04-25T07:47:09;5.58;79.17
76102;SHT30;64830;46.910;6.354;2023-04-25T07:49:36;5.40;80.30
76102;SHT30;64830;46.910;6.354;2023-04-25T07:52:03;5.20;80.95
76102;SHT30;64830;46.910;6.354;2023-04-25T07:54:28;5.10;81.52
76102;SHT30;64830;46.910;6.354;2023-04-25T07:56:54;5.05;81.87
76102;SHT30;64830;46.910;6.354;2023-04-25T07:59:19;5.07;82.27
76102;SHT30;64830;46.910;6.354;2023-04-25T08:01:45;5.10;80.62
76102;SHT30;64830;46.910;6.354;2023-04-25T08:04:10;5.10;80.19
76102;SHT30;64830;46.910;6.354;2023-04-25T08:06:36;5.09;80.30
76102;SHT30;64830;46.910;6.354;2023-04-25T08:09:02;5.10;80.63
76102;SHT30;64830;46.910;6.354;2023-04-25T08:11:28;5.09;81.44
76102;SHT30;64830;46.910;6.354;2023-04-25T08:13:53;5.06;81.32
76102;SHT30;64830;46.910;6.354;2023-04-25T08:16:19;5.13;81.42
76102;SHT30;64830;46.910;6.354;2023-04-25T08:18:44;5.20;80.87
76102;SHT30;64830;46.910;6.354;2023-04-25T08:21:10;5.28;81.04
76102;SHT30;64830;46.910;6.354;2023-04-25T08:23:37;5.37;80.99
76102;SHT30;64830;46.910;6.354;2023-04-25T08:26:02;5.40;80.78
76102;SHT30;64830;46.910;6.354;2023-04-25T08:28:28;5.50;80.95
76102;SHT30;64830;46.910;6.354;2023-04-25T08:30:54;5.55;81.03
76102;SHT30;64830;46.910;6.354;2023-04-25T08:33:19;5.63;80.76
76102;SHT30;64830;46.910;6.354;2023-04-25T08:35:45;5.71;80.67
76102;SHT30;64830;46.910;6.354;2023-04-25T08:38:10;5.76;81.01
76102;SHT30;64830;46.910;6.354;2023-04-25T08:40:38;5.78;81.34
76102;SHT30;64830;46.910;6.354;2023-04-25T08:43:05;5.80;81.31
76102;SHT30;64830;46.910;6.354;2023-04-25T08:45:38;5.86;81.48
76102;SHT30;64830;46.910;6.354;2023-04-25T08:48:05;5.88;81.18
76102;SHT30;64830;46.910;6.354;2023-04-25T08:50:33;5.86;81.02
76102;SHT30;64830;46.910;6.354;2023-04-25T08:53:03;5.86;81.56
76102;SHT30;64830;46.910;6.354;2023-04-25T08:55:30;5.90;81.25
76102;SHT30;64830;46.910;6.354;2023-04-25T08:57:56;5.90;80.91
76102;SHT30;64830;46.910;6.354;2023-04-25T09:00:22;5.99;80.84
76102;SHT30;64830;46.910;6.354;2023-04-25T09:02:48;6.09;80.63
76102;SHT30;64830;46.910;6.354;2023-04-25T09:05:14;6.16;80.90
76102;SHT30;64830;46.910;6.354;2023-04-25T09:07:39;6.18;80.73
76102;SHT30;64830;46.910;6.354;2023-04-25T09:10:05;6.16;80.43
76102;SHT30;64830;46.910;6.354;2023-04-25T09:12:31;6.02;80.88
76102;SHT30;64830;46.910;6.354;2023-04-25T09:15:11;5.96;81.77
76102;SHT30;64830;46.910;6.354;2023-04-25T09:17:36;5.85;82.39
76102;SHT30;64830;46.910;6.354;2023-04-25T09:20:11;5.85;81.88
76102;SHT30;64830;46.910;6.354;2023-04-25T09:22:37;5.83;81.81
76102;SHT30;64830;46.910;6.354;2023-04-25T09:25:08;5.76;80.70
76102;SHT30;64830;46.910;6.354;2023-04-25T09:27:34;5.68;81.76
76102;SHT30;64830;46.910;6.354;2023-04-25T09:30:00;5.71;82.07
76102;SHT30;64830;46.910;6.354;2023-04-25T09:32:25;5.75;82.37
76102;SHT30;64830;46.910;6.354;2023-04-25T09:34:53;5.80;82.38
76102;SHT30;64830;46.910;6.354;2023-04-25T09:37:26;5.86;81.58
76102;SHT30;64830;46.910;6.354;2023-04-25T09:39:59;5.97;82.56
76102;SHT30;64830;46.910;6.354;2023-04-25T09:42:27;6.16;81.82
76102;SHT30;64830;46.910;6.354;2023-04-25T09:44:55;6.31;81.38
76102;SHT30;64830;46.910;6.354;2023-04-25T09:47:21;6.38;80.14
76102;SHT30;64830;46.910;6.354;2023-04-25T09:49:49;6.48;81.59
76102;SHT30;64830;46.910;6.354;2023-04-25T09:52:16;6.58;81.98
76102;SHT30;64830;46.910;6.354;2023-04-25T09:54:42;6.69;81.40
76102;SHT30;64830;46.910;6.354;2023-04-25T09:57:14;6.86;80.63
76102;SHT30;64830;46.910;6.354;2023-04-25T09:59:44;7.21;80.22
76102;SHT30;64830;46.910;6.354;2023-04-25T10:02:10;7.47;79.00
76102;SHT30;64830;46.910;6.354;2023-04-25T10:04:37;7.66;77.96
76102;SHT30;64830;46.910;6.354;2023-04-25T10:07:05;7.72;77.29
76102;SHT30;64830;46.910;6.354;2023-04-25T10:09:32;7.83;74.57
76102;SHT30;64830;46.910;6.354;2023-04-25T10:12:00;7.98;76.64
76102;SHT30;64830;46.910;6.354;2023-04-25T10:14:26;8.21;76.54
76102;SHT30;64830;46.910;6.354;2023-04-25T10:16:52;8.30;73.61
76102;SHT30;64830;46.910;6.354;2023-04-25T10:19:19;8.24;73.37
76102;SHT30;64830;46.910;6.354;2023-04-25T10:21:52;8.25;75.32
76102;SHT30;64830;46.910;6.354;2023-04-25T10:24:19;8.31;73.30
76102;SHT30;64830;46.910;6.354;2023-04-25T10:26:46;8.27;73.62
76102;SHT30;64830;46.910;6.354;2023-04-25T10:29:12;8.25;72.01
76102;SHT30;64830;46.910;6.354;2023-04-25T10:31:46;8.20;71.88
76102;SHT30;64830;46.910;6.354;2023-04-25T10:34:12;8.20;71.49
76102;SHT30;64830;46.910;6.354;2023-04-25T10:36:38;8.18;71.08
76102;SHT30;64830;46.910;6.354;2023-04-25T10:39:07;8.37;74.31
76102;SHT30;64830;46.910;6.354;2023-04-25T10:42:01;8.62;71.09
76102;SHT30;64830;46.910;6.354;2023-04-25T10:44:30;8.72;72.43
76102;SHT30;64830;46.910;6.354;2023-04-25T10:46:57;8.90;72.08
76102;SHT30;64830;46.910;6.354;2023-04-25T10:49:41;9.11;69.62
76102;SHT30;64830;46.910;6.354;2023-04-25T10:52:14;9.28;67.69
76102;SHT30;64830;46.910;6.354;2023-04-25T10:57:36;9.63;68.76
76102;SHT30;64830;46.910;6.354;2023-04-25T11:02:48;9.98;63.47
76102;SHT30;64830;46.910;6.354;2023-04-25T11:05:33;9.94;65.94
76102;SHT30;64830;46.910;6.354;2023-04-25T11:07:59;9.82;61.61
76102;SHT30;64830;46.910;6.354;2023-04-25T11:10:29;9.66;66.32
76102;SHT30;64830;46.910;6.354;2023-04-25T11:12:56;9.39;63.87
76102;SHT30;64830;46.910;6.354;2023-04-25T11:15:25;9.20;64.54
76102;SHT30;64830;46.910;6.354;2023-04-25T11:17:54;9.10;66.29
76102;SHT30;64830;46.910;6.354;2023-04-25T11:20:20;9.03;66.48
76102;SHT30;64830;46.910;6.354;2023-04-25T11:22:47;8.99;66.96
76102;SHT30;64830;46.910;6.354;2023-04-25T11:25:15;8.91;65.90
76102;SHT30;64830;46.910;6.354;2023-04-25T11:27:55;8.79;67.07
76102;SHT30;64830;46.910;6.354;2023-04-25T11:30:23;8.59;70.24
76102;SHT30;64830;46.910;6.354;2023-04-25T11:32:49;8.42;72.44
76102;SHT30;64830;46.910;6.354;2023-04-25T11:35:15;8.24;72.65
76102;SHT30;64830;46.910;6.354;2023-04-25T11:37:42;8.07;72.73
76102;SHT30;64830;46.910;6.354;2023-04-25T11:40:08;7.91;73.30
76102;SHT30;64830;46.910;6.354;2023-04-25T11:42:42;7.77;73.13
76102;SHT30;64830;46.910;6.354;2023-04-25T11:45:08;7.70;74.39
76102;SHT30;64830;46.910;6.354;2023-04-25T11:47:34;7.58;74.54
76102;SHT30;64830;46.910;6.354;2023-04-25T11:50:01;7.42;75.95
76102;SHT30;64830;46.910;6.354;2023-04-25T11:55:10;7.04;75.09
76102;SHT30;64830;46.910;6.354;2023-04-25T11:57:37;7.01;76.16
76102;SHT30;64830;46.910;6.354;2023-04-25T12:00:15;6.97;74.54
76102;SHT30;64830;46.910;6.354;2023-04-25T12:02:46;6.97;75.39
76102;SHT30;64830;46.910;6.354;2023-04-25T12:05:14;7.06;74.82
76102;SHT30;64830;46.910;6.354;2023-04-25T12:07:40;7.20;74.69
76102;SHT30;64830;46.910;6.354;2023-04-25T12:10:13;7.40;73.79
76102;SHT30;64830;46.910;6.354;2023-04-25T12:12:41;7.58;73.16
76102;SHT30;64830;46.910;6.354;2023-04-25T12:15:10;7.75;72.55
76102;SHT30;64830;46.910;6.354;2023-04-25T12:17:37;7.86;72.52
76102;SHT30;64830;46.910;6.354;2023-04-25T12:20:08;8.05;72.14
76102;SHT30;64830;46.910;6.354;2023-04-25T12:22:34;8.15;72.14
76102;SHT30;64830;46.910;6.354;2023-04-25T12:24:59;8.30;71.49
76102;SHT30;64830;46.910;6.354;2023-04-25T12:27:25;8.48;71.42
76102;SHT30;64830;46.910;6.354;2023-04-25T12:29:54;8.56;70.98
76102;SHT30;64830;46.910;6.354;2023-04-25T12:32:20;8.69;70.95
76102;SHT30;64830;46.910;6.354;2023-04-25T12:34:46;8.81;70.73
76102;SHT30;64830;46.910;6.354;2023-04-25T12:37:12;8.91;67.31
76102;SHT30;64830;46.910;6.354;2023-04-25T12:39:38;8.91;68.08
76102;SHT30;64830;46.910;6.354;2023-04-25T12:42:03;9.04;69.91
76102;SHT30;64830;46.910;6.354;2023-04-25T12:44:29;9.20;68.95
76102;SHT30;64830;46.910;6.354;2023-04-25T12:46:54;9.32;69.00
76102;SHT30;64830;46.910;6.354;2023-04-25T12:49:20;9.56;69.52
76102;SHT30;64830;46.910;6.354;2023-04-25T12:51:46;9.86;67.52
76102;SHT30;64830;46.910;6.354;2023-04-25T12:54:12;10.08;68.39
76102;SHT30;64830;46.910;6.354;2023-04-25T12:56:37;10.21;66.96
76102;SHT30;64830;46.910;6.354;2023-04-25T12:59:04;10.34;66.79
76102;SHT30;64830;46.910;6.354;2023-04-25T13:01:29;10.34;62.63
76102;SHT30;64830;46.910;6.354;2023-04-25T13:03:55;10.18;62.54
76102;SHT30;64830;46.910;6.354;2023-04-25T13:06:21;10.14;65.76
76102;SHT30;64830;46.910;6.354;2023-04-25T13:08:47;10.22;64.51
76102;SHT30;64830;46.910;6.354;2023-04-25T13:11:13;10.38;63.27
76102;SHT30;64830;46.910;6.354;2023-04-25T13:13:40;10.49;64.38
76102;SHT30;64830;46.910;6.354;2023-04-25T13:16:06;10.63;64.22
76102;SHT30;64830;46.910;6.354;2023-04-25T13:18:32;10.84;63.38
76102;SHT30;64830;46.910;6.354;2023-04-25T13:20:58;11.03;64.09
76102;SHT30;64830;46.910;6.354;2023-04-25T13:23:25;11.25;61.97
76102;SHT30;64830;46.910;6.354;2023-04-25T13:25:51;11.22;53.28
76102;SHT30;64830;46.910;6.354;2023-04-25T13:28:16;11.12;54.76
76102;SHT30;64830;46.910;6.354;2023-04-25T13:30:42;11.07;59.74
76102;SHT30;64830;46.910;6.354;2023-04-25T13:33:08;11.03;59.03
76102;SHT30;64830;46.910;6.354;2023-04-25T13:35:34;11.12;57.42
76102;SHT30;64830;46.910;6.354;2023-04-25T13:38:00;11.22;60.27
76102;SHT30;64830;46.910;6.354;2023-04-25T13:40:26;11.35;59.59
76102;SHT30;64830;46.910;6.354;2023-04-25T13:42:52;11.28;53.99
76102;SHT30;64830;46.910;6.354;2023-04-25T13:45:18;11.11;55.32
76102;SHT30;64830;46.910;6.354;2023-04-25T13:47:43;10.96;57.24
76102;SHT30;64830;46.910;6.354;2023-04-25T13:50:09;10.90;55.33
76102;SHT30;64830;46.910;6.354;2023-04-25T13:52:34;10.79;56.33
76102;SHT30;64830;46.910;6.354;2023-04-25T13:55:00;10.62;54.70
76102;SHT30;64830;46.910;6.354;2023-04-25T13:57:27;10.62;57.32
76102;SHT30;64830;46.910;6.354;2023-04-25T13:59:53;10.74;57.68
76102;SHT30;64830;46.910;6.354;2023-04-25T14:02:18;10.90;58.87
76102;SHT30;64830;46.910;6.354;2023-04-25T14:04:44;11.06;60.55
76102;SHT30;64830;46.910;6.354;2023-04-25T14:07:10;11.17;59.41
76102;SHT30;64830;46.910;6.354;2023-04-25T14:09:36;11.29;59.26
76102;SHT30;64830;46.910;6.354;2023-04-25T14:12:01;11.51;59.60
76102;SHT30;64830;46.910;6.354;2023-04-25T14:14:27;11.77;57.04
76102;SHT30;64830;46.910;6.354;2023-04-25T14:16:53;11.87;58.96
76102;SHT30;64830;46.910;6.354;2023-04-25T14:19:20;11.93;54.26
76102;SHT30;64830;46.910;6.354;2023-04-25T14:21:45;11.79;56.97
76102;SHT30;64830;46.910;6.354;2023-04-25T14:24:12;11.70;53.54
76102;SHT30;64830;46.910;6.354;2023-04-25T14:26:38;11.52;55.04
76102;SHT30;64830;46.910;6.354;2023-04-25T14:29:05;11.47;54.93
76102;SHT30;64830;46.910;6.354;2023-04-25T14:31:31;11.38;55.32
76102;SHT30;64830;46.910;6.354;2023-04-25T14:33:56;11.28;57.64
76102;SHT30;64830;46.910;6.354;2023-04-25T14:36:22;11.11;55.93
76102;SHT30;64830;46.910;6.354;2023-04-25T14:38:47;10.93;57.71
76102;SHT30;64830;46.910;6.354;2023-04-25T14:41:13;10.81;59.06
76102;SHT30;64830;46.910;6.354;2023-04-25T14:43:38;10.76;58.32
76102;SHT30;64830;46.910;6.354;2023-04-25T14:46:05;10.66;59.77
76102;SHT30;64830;46.910;6.354;2023-04-25T14:48:31;10.62;60.92
76102;SHT30;64830;46.910;6.354;2023-04-25T14:50:57;10.45;61.77
76102;SHT30;64830;46.910;6.354;2023-04-25T14:53:23;10.35;62.35
76102;SHT30;64830;46.910;6.354;2023-04-25T14:55:48;10.31;62.82
76102;SHT30;64830;46.910;6.354;2023-04-25T14:58:14;10.28;62.90
76102;SHT30;64830;46.910;6.354;2023-04-25T15:00:39;10.27;63.37
76102;SHT30;64830;46.910;6.354;2023-04-25T15:03:05;10.32;62.90
76102;SHT30;64830;46.910;6.354;2023-04-25T15:05:32;10.36;63.07
76102;SHT30;64830;46.910;6.354;2023-04-25T15:07:58;10.34;63.21
76102;SHT30;64830;46.910;6.354;2023-04-25T15:10:23;10.32;63.40
76102;SHT30;64830;46.910;6.354;2023-04-25T15:12:49;10.35;63.61
76102;SHT30;64830;46.910;6.354;2023-04-25T15:15:14;10.32;63.38
76102;SHT30;64830;46.910;6.354;2023-04-25T15:17:41;10.36;63.73
76102;SHT30;64830;46.910;6.354;2023-04-25T15:20:11;10.49;64.19
76102;SHT30;64830;46.910;6.354;2023-04-25T15:22:40;10.66;63.10
76102;SHT30;64830;46.910;6.354;2023-04-25T15:25:07;10.73;63.09
76102;SHT30;64830;46.910;6.354;2023-04-25T15:27:33;10.83;63.07
76102;SHT30;64830;46.910;6.354;2023-04-25T15:29:59;10.96;63.47
76102;SHT30;64830;46.910;6.354;2023-04-25T15:32:25;11.04;63.42
76102;SHT30;64830;46.910;6.354;2023-04-25T15:34:50;11.15;63.20
76102;SHT30;64830;46.910;6.354;2023-04-25T15:37:17;11.32;62.77
76102;SHT30;64830;46.910;6.354;2023-04-25T15:39:43;11.59;64.64
76102;SHT30;64830;46.910;6.354;2023-04-25T15:42:09;11.87;62.01
76102;SHT30;64830;46.910;6.354;2023-04-25T15:44:34;11.95;61.74